createdAt,value
2018-06-13T00:01:11.040Z,148909.41
2018-06-13T00:03:42.001Z,148906.91
2018-06-13T00:06:16.352Z,148910.64
2018-06-13T00:08:47.432Z,148916.92
2018-06-13T00:11:18.611Z,148920.66
2018-06-13T00:13:49.682Z,148918.16
2018-06-13T00:16:20.939Z,148919.41
2018-06-13T00:18:52.686Z,148920.66
2018-06-13T00:21:24.034Z,148934.41
2018-06-13T00:23:55.174Z,148929.42
2018-06-13T00:26:29.824Z,148923.19
2018-06-13T00:29:00.660Z,148939.39
2018-06-13T00:31:31.707Z,148939.39
2018-06-13T00:34:02.834Z,148954.34
2018-06-13T00:36:34.178Z,148971.83
2018-06-13T00:39:07.431Z,148968.09
2018-06-13T00:41:39.172Z,148990.52
2018-06-13T00:44:10.155Z,149001.73
2018-06-13T00:46:41.348Z,149011.75
2018-06-13T00:49:12.257Z,149006.72
2018-06-13T00:51:43.235Z,148976.81
2018-06-13T00:54:14.704Z,148934.41
2018-06-13T00:56:45.691Z,148894.44
2018-06-13T00:59:16.816Z,148860.77
2018-06-13T01:01:47.947Z,148868.28
2018-06-13T01:04:19.049Z,148864.50
2018-06-13T01:06:50.426Z,148815.89
2018-06-13T01:09:21.361Z,148889.47
2018-06-13T01:11:52.271Z,148913.12
2018-06-13T01:14:24.996Z,148911.89
2018-06-13T01:16:55.716Z,148905.66
2018-06-13T01:19:27.762Z,148896.94
2018-06-13T01:21:59.028Z,148874.52
2018-06-13T01:24:30.070Z,148863.27
2018-06-13T01:27:00.733Z,148847.06
2018-06-13T01:29:32.461Z,148855.78
2018-06-13T01:32:04.591Z,148844.58
2018-06-13T01:34:35.580Z,148828.39
2018-06-13T01:37:06.545Z,148812.16
2018-06-13T01:39:38.455Z,148794.72
2018-06-13T01:42:09.332Z,148771.02
2018-06-13T01:44:40.271Z,148763.55
2018-06-13T01:47:11.047Z,148718.67
2018-06-13T01:49:41.702Z,148660.06
2018-06-13T01:52:12.570Z,148668.78
2018-06-13T01:54:43.415Z,148662.56
2018-06-13T01:57:14.677Z,148642.64
2018-06-13T01:59:46.430Z,148612.72
2018-06-13T02:02:17.199Z,148580.31
2018-06-13T02:04:48.160Z,148599.03
2018-06-13T02:07:19.210Z,148599.03
2018-06-13T02:09:50.943Z,148606.50
2018-06-13T02:12:21.994Z,148610.23
2018-06-13T02:14:53.775Z,148602.77
2018-06-13T02:17:24.813Z,148577.83
2018-06-13T02:19:55.857Z,148574.09
2018-06-13T02:22:26.949Z,148576.58
2018-06-13T02:24:58.350Z,148572.84
2018-06-13T02:27:29.363Z,148555.42
2018-06-13T02:30:00.400Z,148540.50
2018-06-13T02:32:31.259Z,148542.98
2018-06-13T02:35:02.354Z,148511.83
2018-06-13T02:37:35.318Z,148496.84
2018-06-13T02:40:07.973Z,148503.06
2018-06-13T02:42:38.883Z,148506.84
2018-06-13T02:45:10.029Z,148516.81
2018-06-13T02:47:40.947Z,148528.00
2018-06-13T02:50:12.099Z,148532.98
2018-06-13T02:52:43.122Z,148545.47
2018-06-13T02:55:14.143Z,148539.25
2018-06-13T02:57:45.157Z,148557.92
2018-06-13T03:00:17.264Z,148600.28
2018-06-13T03:02:48.170Z,148640.16
2018-06-13T03:05:19.001Z,148706.17
2018-06-13T03:07:50.018Z,148817.13
2018-06-13T03:10:22.374Z,148974.31
2018-06-13T03:12:53.268Z,149141.50
2018-06-13T03:15:25.415Z,149337.48
2018-06-13T03:17:56.327Z,149488.61
2018-06-13T03:20:27.581Z,149657.28
2018-06-13T03:22:58.586Z,149898.59
2018-06-13T03:25:29.441Z,150167.56
2018-06-13T03:28:00.471Z,150380.39
2018-06-13T03:30:32.992Z,150544.50
2018-06-13T03:33:07.724Z,150673.58
2018-06-13T03:35:38.941Z,150935.52
2018-06-13T03:38:10.017Z,151156.31
2018-06-13T03:40:41.092Z,151338.28
2018-06-13T03:43:11.990Z,151519.08
2018-06-13T03:45:43.551Z,151628.34
2018-06-13T03:48:14.379Z,151697.44
2018-06-13T03:50:45.304Z,151790.44
2018-06-13T03:53:16.404Z,151855.73
2018-06-13T03:55:47.076Z,151893.44
2018-06-13T03:58:17.871Z,152020.41
2018-06-13T04:00:48.672Z,152016.66
2018-06-13T04:03:19.650Z,152156.28
2018-06-13T04:05:50.660Z,152309.72
2018-06-13T04:08:21.706Z,152399.06
2018-06-13T04:10:53.497Z,152433.05
2018-06-13T04:13:24.528Z,152436.81
2018-06-13T04:15:55.501Z,152607.94
2018-06-13T04:18:26.578Z,152673.47
2018-06-13T04:20:57.811Z,152801.88
2018-06-13T04:23:28.883Z,152858.52
2018-06-13T04:25:59.978Z,152924.06
2018-06-13T04:28:30.760Z,153100.52
2018-06-13T04:31:01.641Z,153105.55
2018-06-13T04:33:32.444Z,153263.06
2018-06-13T04:36:03.191Z,153220.22
2018-06-13T04:38:34.230Z,153140.78
2018-06-13T04:41:05.913Z,153403.02
2018-06-13T04:43:36.991Z,153389.16
2018-06-13T04:46:07.992Z,153332.41
2018-06-13T04:48:39.962Z,153166.00
2018-06-13T04:51:10.998Z,153009.77
2018-06-13T04:53:41.968Z,153217.70
2018-06-13T04:56:13.103Z,153318.50
2018-06-13T04:58:43.986Z,153370.22
2018-06-13T05:01:14.892Z,153197.52
2018-06-13T05:03:45.973Z,153434.59
2018-06-13T05:06:16.689Z,153456.00
2018-06-13T05:08:47.821Z,153617.41
2018-06-13T05:11:18.927Z,153549.34
2018-06-13T05:13:53.717Z,153818.08
2018-06-13T05:16:25.861Z,153396.72
2018-06-13T05:18:56.885Z,153665.38
2018-06-13T05:21:27.834Z,153869.84
2018-06-13T05:23:58.725Z,153983.44
2018-06-13T05:26:29.706Z,153844.55
2018-06-13T05:29:00.550Z,153794.09
2018-06-13T05:31:31.489Z,153778.97
2018-06-13T05:34:02.371Z,154044.00
2018-06-13T05:36:33.452Z,154083.17
2018-06-13T05:39:05.132Z,153802.91
2018-06-13T05:41:36.234Z,154022.56
2018-06-13T05:44:07.045Z,153844.55
2018-06-13T05:46:39.140Z,153882.45
2018-06-13T05:49:10.220Z,153950.56
2018-06-13T05:51:41.369Z,154002.34
2018-06-13T05:54:12.474Z,154141.22
2018-06-13T05:56:43.611Z,154224.59
2018-06-13T05:59:14.583Z,154434.28
2018-06-13T06:01:46.417Z,154234.69
2018-06-13T06:04:17.281Z,154311.78
2018-06-13T06:06:48.469Z,154249.87
2018-06-13T06:09:19.941Z,154325.64
2018-06-13T06:11:52.010Z,154229.66
2018-06-13T06:14:23.197Z,154515.17
2018-06-13T06:16:54.474Z,154761.67
2018-06-13T06:19:25.396Z,154859.03
2018-06-13T06:21:56.304Z,154784.44
2018-06-13T06:24:27.193Z,154564.48
2018-06-13T06:26:59.115Z,154326.91
2018-06-13T06:29:30.097Z,154542.98
2018-06-13T06:32:01.773Z,154334.47
2018-06-13T06:34:33.110Z,154079.39
2018-06-13T06:37:04.583Z,153715.81
2018-06-13T06:39:35.609Z,153701.97
2018-06-13T06:42:06.856Z,154402.75
2018-06-13T06:44:38.109Z,154199.33
2018-06-13T06:47:09.019Z,154244.78
2018-06-13T06:49:40.144Z,153948.05
2018-06-13T06:52:11.078Z,153733.50
2018-06-13T06:54:41.826Z,154281.45
2018-06-13T06:57:12.661Z,154363.53
2018-06-13T06:59:43.624Z,153879.92
2018-06-13T07:02:16.411Z,154310.52
2018-06-13T07:04:47.456Z,154052.81
2018-06-13T07:07:21.852Z,154476.02
2018-06-13T07:09:52.779Z,154175.37
2018-06-13T07:12:25.356Z,154525.28
2018-06-13T07:14:56.417Z,154405.27
2018-06-13T07:17:27.472Z,154592.30
2018-06-13T07:19:58.587Z,154572.06
2018-06-13T07:22:29.468Z,153492.56
2018-06-13T07:24:59.984Z,153962.00
2018-06-13T07:27:30.637Z,154390.08
2018-06-13T07:30:01.149Z,154241.00
2018-06-13T07:32:31.718Z,154324.37
2018-06-13T07:35:02.247Z,154052.81
2018-06-13T07:37:32.846Z,154008.69
2018-06-13T07:40:03.560Z,154081.91
2018-06-13T07:42:34.113Z,153987.22
2018-06-13T07:45:05.233Z,153883.72
2018-06-13T07:47:36.467Z,153810.47
2018-06-13T07:50:08.308Z,153664.11
2018-06-13T07:52:39.182Z,153614.89
2018-06-13T07:55:10.151Z,153789.05
2018-06-13T07:57:41.038Z,153409.31
2018-06-13T08:00:15.093Z,153092.86
2018-06-13T08:02:46.348Z,153104.28
2018-06-13T08:05:18.118Z,152776.72
2018-06-13T08:07:49.129Z,153153.41
2018-06-13T08:10:20.164Z,153133.23
2018-06-13T08:12:52.251Z,153021.09
2018-06-13T08:15:23.129Z,152114.73
2018-06-13T08:17:54.275Z,151801.72
2018-06-13T08:20:25.425Z,151762.72
2018-06-13T08:22:56.408Z,151192.70
2018-06-13T08:25:27.062Z,151132.47
2018-06-13T08:27:57.648Z,151087.31
2018-06-13T08:30:28.569Z,150887.89
2018-06-13T08:32:59.553Z,150681.09
2018-06-13T08:35:30.356Z,150734.95
2018-06-13T08:38:01.149Z,150752.47
2018-06-13T08:40:32.233Z,150582.08
2018-06-13T08:43:03.334Z,150470.55
2018-06-13T08:45:34.247Z,150559.52
2018-06-13T08:48:05.156Z,150618.38
2018-06-13T08:50:35.877Z,150559.52
2018-06-13T08:53:07.514Z,150602.09
2018-06-13T08:55:38.645Z,150537.00
2018-06-13T08:58:09.657Z,150514.42
2018-06-13T09:00:40.865Z,150622.17
2018-06-13T09:03:11.812Z,150491.91
2018-06-13T09:05:42.635Z,150550.75
2018-06-13T09:08:13.627Z,150525.69
2018-06-13T09:10:44.421Z,150486.86
2018-06-13T09:13:16.756Z,150369.14
2018-06-13T09:15:47.586Z,150438.03
2018-06-13T09:18:18.487Z,150448.03
2018-06-13T09:20:50.560Z,150529.48
2018-06-13T09:23:21.545Z,150542.00
2018-06-13T09:25:53.674Z,150509.42
2018-06-13T09:28:24.661Z,150463.05
2018-06-13T09:30:55.578Z,150384.20
2018-06-13T09:33:26.570Z,150331.53
2018-06-13T09:35:57.370Z,150435.53
2018-06-13T09:38:28.299Z,150498.16
2018-06-13T09:40:59.376Z,150490.61
2018-06-13T09:43:31.273Z,150475.55
2018-06-13T09:46:03.562Z,150464.30
2018-06-13T09:48:32.835Z,150509.42
2018-06-13T09:51:03.427Z,150469.30
2018-06-13T09:53:34.345Z,150466.80
2018-06-13T09:56:05.322Z,150445.53
2018-06-13T09:58:41.031Z,150412.97
2018-06-13T10:01:16.879Z,150421.72
2018-06-13T10:03:47.719Z,150399.20
2018-06-13T10:06:18.677Z,150364.14
2018-06-13T10:08:49.391Z,150412.97
2018-06-13T10:11:20.183Z,150390.45
2018-06-13T10:13:53.492Z,150433.03
2018-06-13T10:16:25.314Z,150429.22
2018-06-13T10:18:56.139Z,150476.80
2018-06-13T10:21:28.237Z,150425.47
2018-06-13T10:23:59.303Z,150364.14
2018-06-13T10:26:30.767Z,150392.95
2018-06-13T10:29:01.781Z,150427.97
2018-06-13T10:31:32.592Z,150478.06
2018-06-13T10:34:03.674Z,150523.19
2018-06-13T10:36:34.550Z,150519.44
2018-06-13T10:39:07.153Z,150562.02
2018-06-13T10:41:38.183Z,150577.08
2018-06-13T10:44:10.638Z,150585.83
2018-06-13T10:46:41.934Z,150524.44
2018-06-13T10:49:14.283Z,150539.50
2018-06-13T10:51:45.618Z,150521.94
2018-06-13T10:54:16.404Z,150528.23
2018-06-13T10:56:47.176Z,150560.77
2018-06-13T10:59:17.941Z,150431.78
2018-06-13T11:01:49.326Z,150448.03
2018-06-13T11:04:20.345Z,150484.36
2018-06-13T11:06:51.285Z,150530.73
2018-06-13T11:09:22.158Z,150443.03
2018-06-13T11:11:53.075Z,150439.28
2018-06-13T11:14:24.451Z,150427.97
2018-06-13T11:16:55.582Z,150372.91
2018-06-13T11:19:26.389Z,150389.20
2018-06-13T11:21:57.270Z,150424.22
2018-06-13T11:24:28.074Z,150445.53
2018-06-13T11:26:58.999Z,150459.28
2018-06-13T11:29:29.938Z,150346.64
2018-06-13T11:32:00.942Z,150346.64
2018-06-13T11:34:31.719Z,150375.39
2018-06-13T11:37:02.649Z,150420.47
2018-06-13T11:39:33.959Z,150438.03
2018-06-13T11:42:04.816Z,150411.72
2018-06-13T11:44:36.664Z,150449.28
2018-06-13T11:47:07.503Z,150379.16
2018-06-13T11:49:38.294Z,150355.39
2018-06-13T11:52:09.387Z,150370.39
2018-06-13T11:54:41.324Z,150292.78
2018-06-13T11:57:12.300Z,150341.63
2018-06-13T11:59:43.228Z,150355.39
2018-06-13T12:02:14.175Z,150334.03
2018-06-13T12:04:44.968Z,150361.64
2018-06-13T12:07:15.643Z,150399.20
2018-06-13T12:09:46.700Z,150405.47
2018-06-13T12:12:17.700Z,150376.66
2018-06-13T12:14:49.343Z,150399.20
2018-06-13T12:17:20.289Z,150364.14
2018-06-13T12:19:51.372Z,150319.03
2018-06-13T12:22:24.961Z,150296.53
2018-06-13T12:24:55.878Z,150329.03
2018-06-13T12:27:26.597Z,150350.38
2018-06-13T12:29:57.449Z,150245.22
2018-06-13T12:32:28.674Z,150268.97
2018-06-13T12:34:59.674Z,150282.72
2018-06-13T12:37:30.680Z,150286.47
2018-06-13T12:40:01.692Z,150309.03
2018-06-13T12:42:32.677Z,150320.28
2018-06-13T12:45:04.537Z,150305.28
2018-06-13T12:47:35.673Z,150344.12
2018-06-13T12:50:06.683Z,150312.78
2018-06-13T12:52:38.688Z,150306.53
2018-06-13T12:55:09.742Z,150213.91
2018-06-13T12:57:40.733Z,150253.97
2018-06-13T13:00:11.691Z,150294.02
2018-06-13T13:02:42.470Z,150278.97
2018-06-13T13:05:13.478Z,150322.78
2018-06-13T13:07:44.305Z,150316.53
2018-06-13T13:10:15.206Z,150307.78
2018-06-13T13:12:46.131Z,150296.53
2018-06-13T13:15:16.953Z,150243.97
2018-06-13T13:17:47.814Z,150222.66
2018-06-13T13:20:18.780Z,150130.03
2018-06-13T13:22:49.477Z,150113.78
2018-06-13T13:25:20.354Z,150128.78
2018-06-13T13:27:51.251Z,150161.31
2018-06-13T13:30:22.272Z,150188.86
2018-06-13T13:32:53.221Z,150205.16
2018-06-13T13:35:26.558Z,150183.87
2018-06-13T13:37:57.507Z,150198.91
2018-06-13T13:40:28.366Z,150183.87
2018-06-13T13:42:59.266Z,150157.56
2018-06-13T13:45:30.178Z,150185.13
2018-06-13T13:48:01.915Z,150201.41
2018-06-13T13:50:32.897Z,150136.28
2018-06-13T13:53:03.740Z,150182.61
2018-06-13T13:55:34.890Z,150175.06
2018-06-13T13:58:06.373Z,150213.91
2018-06-13T14:00:37.414Z,150233.91
2018-06-13T14:03:11.275Z,150183.87
2018-06-13T14:05:42.377Z,150225.17
2018-06-13T14:08:13.376Z,150215.16
2018-06-13T14:10:44.255Z,150171.31
2018-06-13T14:13:15.009Z,150171.31
2018-06-13T14:15:46.887Z,150182.61
2018-06-13T14:18:17.911Z,150177.62
2018-06-13T14:20:48.645Z,150178.88
2018-06-13T14:23:19.682Z,150136.28
2018-06-13T14:25:50.482Z,150148.81
2018-06-13T14:28:21.436Z,150170.06
2018-06-13T14:30:52.283Z,150167.56
2018-06-13T14:33:23.318Z,150068.75
2018-06-13T14:35:54.452Z,150038.70
2018-06-13T14:38:25.449Z,149948.61
2018-06-13T14:40:56.522Z,149981.14
2018-06-13T14:43:27.338Z,149984.88
2018-06-13T14:45:58.863Z,150034.95
2018-06-13T14:48:30.964Z,150042.45
2018-06-13T14:51:02.176Z,150063.75
2018-06-13T14:53:33.413Z,150071.25
2018-06-13T14:56:09.274Z,150060.00
2018-06-13T14:58:40.842Z,150094.98
2018-06-13T15:01:11.902Z,150039.95
2018-06-13T15:03:43.165Z,150041.20
2018-06-13T15:06:14.257Z,149997.38
2018-06-13T15:08:45.354Z,149946.11
2018-06-13T15:11:16.535Z,149987.39
2018-06-13T15:13:50.497Z,150023.72
2018-06-13T15:16:22.879Z,150037.45
2018-06-13T15:18:53.873Z,150032.45
2018-06-13T15:21:25.761Z,150043.70
2018-06-13T15:23:56.801Z,149967.39
2018-06-13T15:26:27.822Z,149998.62
2018-06-13T15:28:58.691Z,149986.13
2018-06-13T15:31:30.083Z,150008.67
2018-06-13T15:34:01.554Z,149976.14
2018-06-13T15:36:32.544Z,149982.39
2018-06-13T15:39:03.395Z,149998.62
2018-06-13T15:41:34.196Z,150001.12
2018-06-13T15:44:05.364Z,149986.13
2018-06-13T15:46:36.328Z,149971.14
2018-06-13T15:49:07.346Z,149916.13
2018-06-13T15:51:38.301Z,149901.09
2018-06-13T15:54:09.206Z,149893.59
2018-06-13T15:56:40.375Z,149897.34
2018-06-13T15:59:11.834Z,149889.84
2018-06-13T16:01:42.845Z,149857.33
2018-06-13T16:04:13.895Z,149819.81
2018-06-13T16:06:44.900Z,149793.55
2018-06-13T16:09:15.964Z,149808.53
2018-06-13T16:11:47.030Z,149773.58
2018-06-13T16:14:17.949Z,149778.56
2018-06-13T16:16:49.760Z,149759.78
2018-06-13T16:19:20.991Z,149734.81
2018-06-13T16:21:52.125Z,149698.56
2018-06-13T16:24:23.305Z,149677.34
2018-06-13T16:26:54.582Z,149686.08
2018-06-13T16:29:25.802Z,149691.08
2018-06-13T16:31:57.925Z,149651.03
2018-06-13T16:34:28.840Z,149634.81
2018-06-13T16:37:02.105Z,149633.56
2018-06-13T16:39:33.859Z,149581.09
2018-06-13T16:42:04.920Z,149577.34
2018-06-13T16:44:36.231Z,149563.58
2018-06-13T16:47:10.488Z,149562.33
2018-06-13T16:49:41.546Z,149531.13
2018-06-13T16:52:25.557Z,149503.64
2018-06-13T16:55:16.268Z,149494.91
2018-06-13T16:57:47.424Z,149493.66
2018-06-13T17:00:19.572Z,149488.61
2018-06-13T17:02:51.471Z,149464.86
2018-06-13T17:05:23.361Z,149458.63
2018-06-13T17:07:54.317Z,149421.16
2018-06-13T17:10:25.432Z,149398.69
2018-06-13T17:12:56.442Z,149381.19
2018-06-13T17:15:27.505Z,149368.72
2018-06-13T17:17:58.903Z,149393.70
2018-06-13T17:20:29.978Z,149361.23
2018-06-13T17:23:01.186Z,149363.72
2018-06-13T17:25:32.217Z,149366.22
2018-06-13T17:28:03.193Z,149359.98
2018-06-13T17:30:34.490Z,149356.25
2018-06-13T17:33:05.723Z,149359.98
2018-06-13T17:35:38.573Z,149357.48
2018-06-13T17:38:09.559Z,149328.75
2018-06-13T17:40:40.460Z,149313.78
2018-06-13T17:43:11.652Z,149288.75
2018-06-13T17:45:42.827Z,149271.30
2018-06-13T17:48:13.966Z,149256.34
2018-06-13T17:50:45.887Z,149228.86
2018-06-13T17:53:17.232Z,149233.84
2018-06-13T17:55:49.826Z,149241.33
2018-06-13T17:58:20.911Z,149225.12
2018-06-13T18:00:51.846Z,149212.66
2018-06-13T18:03:23.127Z,149180.19
2018-06-13T18:05:54.474Z,149178.94
2018-06-13T18:08:25.797Z,149148.97
2018-06-13T18:10:57.000Z,149114.03
2018-06-13T18:13:28.243Z,149131.53
2018-06-13T18:15:59.565Z,149147.73
2018-06-13T18:18:31.250Z,149156.50
2018-06-13T18:21:02.583Z,149156.50
2018-06-13T18:23:34.161Z,149154.02
2018-06-13T18:26:05.352Z,149151.52
2018-06-13T18:28:37.060Z,149154.02
2018-06-13T18:31:08.337Z,149137.75
2018-06-13T18:33:39.711Z,149132.78
2018-06-13T18:36:10.978Z,149116.53
2018-06-13T18:38:51.055Z,149111.53
2018-06-13T18:41:22.472Z,149104.06
2018-06-13T18:43:53.592Z,149101.52
2018-06-13T18:46:30.107Z,149104.06
2018-06-13T18:49:02.161Z,149099.03
2018-06-13T18:51:33.297Z,149097.78
2018-06-13T18:54:05.646Z,149096.53
2018-06-13T18:56:36.679Z,149090.30
2018-06-13T18:59:09.043Z,149081.58
2018-06-13T19:01:40.064Z,149076.59
2018-06-13T19:04:11.011Z,149059.16
2018-06-13T19:06:42.782Z,149056.66
2018-06-13T19:09:14.767Z,149042.89
2018-06-13T19:11:45.981Z,149057.91
2018-06-13T19:14:17.070Z,149042.89
2018-06-13T19:16:48.313Z,149037.91
2018-06-13T19:19:19.396Z,149015.48
2018-06-13T19:21:50.482Z,149016.73
2018-06-13T19:24:21.592Z,149000.48
2018-06-13T19:26:52.656Z,148986.78
2018-06-13T19:29:23.892Z,148986.78
2018-06-13T19:31:55.066Z,148986.78
2018-06-13T19:34:26.309Z,148984.28
2018-06-13T19:36:57.419Z,148986.78
2018-06-13T19:39:30.038Z,148989.27
2018-06-13T19:42:01.029Z,148995.50
2018-06-13T19:44:32.069Z,148994.25
2018-06-13T19:48:09.787Z,149002.97
2018-06-13T19:50:40.993Z,148979.31
2018-06-13T19:53:18.160Z,148964.36
2018-06-13T19:55:54.511Z,148976.81
2018-06-13T19:58:25.736Z,148986.78
2018-06-13T20:00:56.882Z,149014.23
2018-06-13T20:03:32.841Z,149016.73
2018-06-13T20:06:04.028Z,149022.97
2018-06-13T20:08:35.900Z,149026.69
2018-06-13T20:11:06.903Z,149040.41
2018-06-13T20:13:42.923Z,149044.14
2018-06-13T20:16:19.321Z,149041.66
2018-06-13T20:18:55.203Z,149046.64
2018-06-13T20:21:26.288Z,149022.97
2018-06-13T20:23:57.398Z,149039.16
2018-06-13T20:26:33.250Z,149059.16
2018-06-13T20:29:09.266Z,149089.06
2018-06-13T20:31:42.140Z,149080.33
2018-06-13T20:34:13.135Z,149075.34
2018-06-13T20:36:44.095Z,149077.84
2018-06-13T20:39:15.206Z,149089.06
2018-06-13T20:41:46.183Z,149089.06
2018-06-13T20:44:17.273Z,149094.03
2018-06-13T20:46:49.535Z,149104.06
2018-06-13T20:49:20.542Z,149095.28
2018-06-13T20:51:51.787Z,149091.55
2018-06-13T20:54:22.835Z,149096.53
2018-06-13T20:56:53.830Z,149101.52
2018-06-13T20:59:24.855Z,149104.06
2018-06-13T21:01:55.707Z,149084.06
2018-06-13T21:04:27.244Z,149089.06
2018-06-13T21:06:58.288Z,149077.84
2018-06-13T21:09:29.632Z,149064.13
2018-06-13T21:12:00.719Z,149061.64
2018-06-13T21:14:31.974Z,149027.94
2018-06-13T21:17:02.749Z,149011.75
2018-06-13T21:19:34.096Z,148988.03
2018-06-13T21:22:05.076Z,148981.80
2018-06-13T21:24:36.988Z,148968.09
2018-06-13T21:27:08.057Z,148964.36
2018-06-13T21:29:39.104Z,148963.11
2018-06-13T21:32:10.201Z,148956.83
2018-06-13T21:34:41.468Z,148943.13
2018-06-13T21:37:12.494Z,148936.89
2018-06-13T21:39:43.456Z,148906.91
2018-06-13T21:42:14.579Z,148898.19
2018-06-13T21:44:45.634Z,148890.72
2018-06-13T21:47:16.529Z,148882.00
2018-06-13T21:49:47.552Z,148873.28
2018-06-13T21:52:18.602Z,148859.53
2018-06-13T21:54:50.655Z,148802.19
2018-06-13T21:57:21.653Z,148810.91
2018-06-13T21:59:52.675Z,148832.12
2018-06-13T22:02:23.555Z,148838.36
2018-06-13T22:04:55.571Z,148837.11
2018-06-13T22:07:26.400Z,148843.34
2018-06-13T22:09:57.450Z,148813.41
2018-06-13T22:12:28.438Z,148812.16
2018-06-13T22:14:59.310Z,148824.66
2018-06-13T22:17:31.555Z,148824.66
2018-06-13T22:20:02.513Z,148805.92
2018-06-13T22:22:33.825Z,148797.22
2018-06-13T22:25:05.925Z,148781.03
2018-06-13T22:27:36.934Z,148774.80
2018-06-13T22:30:08.132Z,148799.70
2018-06-13T22:32:39.317Z,148786.00
2018-06-13T22:35:10.515Z,148789.73
2018-06-13T22:37:41.463Z,148799.70
2018-06-13T22:40:12.497Z,148790.98
2018-06-13T22:42:43.309Z,148787.25
2018-06-13T22:45:14.190Z,148757.31
2018-06-13T22:47:45.346Z,148771.02
2018-06-13T22:50:16.393Z,148787.25
2018-06-13T22:52:47.321Z,148771.02
2018-06-13T22:55:18.442Z,148762.30
2018-06-13T22:57:49.526Z,148732.41
2018-06-13T23:00:29.368Z,148734.91
2018-06-13T23:02:59.961Z,148741.12
2018-06-13T23:05:31.056Z,148734.91
2018-06-13T23:08:02.516Z,148734.91
2018-06-13T23:10:39.289Z,148697.47
2018-06-13T23:13:15.533Z,148691.23
2018-06-13T23:15:46.734Z,148682.53
2018-06-13T23:18:17.952Z,148675.00
2018-06-13T23:20:49.439Z,148671.27
2018-06-13T23:23:21.119Z,148677.50
2018-06-13T23:25:54.176Z,148665.05
2018-06-13T23:28:25.430Z,148660.06
2018-06-13T23:30:56.529Z,148651.34
2018-06-13T23:33:28.298Z,148650.11
2018-06-13T23:35:59.448Z,148641.39
2018-06-13T23:38:30.408Z,148642.64
2018-06-13T23:41:01.440Z,148627.66
2018-06-13T23:43:32.334Z,148633.94
2018-06-13T23:46:03.410Z,148636.42
2018-06-13T23:48:34.384Z,148628.91
2018-06-13T23:51:06.073Z,148608.98
2018-06-13T23:53:36.956Z,148608.98
2018-06-13T23:56:08.549Z,148618.94
2018-06-13T23:58:39.616Z,148647.63
